Time;durP1;ratioP1;P1;durP2;ratioP2;P2;SDS_P1;SDS_P2;PMS_P1;PMS_P2;Temp;Humidity;BMP_temperature;BMP_pressure;BME280_temperature;BME280_humidity;BME280_pressure;Samples;Min_cycle;Max_cycle;Signal;HPM_P1;HPM_P2
2023/04/16 00:01:39;;;;;;;1.60;0.97;;;12.00;82.40;;;;;;5008223;28;20515;-88
2023/04/16 00:04:05;;;;;;;2.42;0.80;;;12.00;82.50;;;;;;5028790;28;20030;-84
2023/04/16 00:06:31;;;;;;;1.45;0.70;;;12.00;82.60;;;;;;5014455;28;20395;-87
2023/04/16 00:08:57;;;;;;;1.03;0.70;;;12.00;82.60;;;;;;5033364;28;20555;-87
2023/04/16 00:11:23;;;;;;;2.00;0.90;;;12.00;82.70;;;;;;5018634;28;20033;-88
2023/04/16 00:13:48;;;;;;;1.20;0.80;;;12.00;82.70;;;;;;5020283;28;20214;-87
2023/04/16 00:16:15;;;;;;;0.83;0.60;;;12.00;82.70;;;;;;5004004;28;20033;-86
2023/04/16 00:18:40;;;;;;;1.63;0.70;;;12.00;83.60;;;;;;5035631;28;20190;-88
2023/04/16 00:21:07;;;;;;;1.38;0.73;;;12.00;82.70;;;;;;5017361;28;20036;-90
2023/04/16 00:23:32;;;;;;;1.57;0.70;;;11.90;82.70;;;;;;4998527;28;20021;-87
2023/04/16 00:26:01;;;;;;;1.67;0.60;;;12.00;82.90;;;;;;5036356;28;20433;-88
2023/04/16 00:28:26;;;;;;;1.42;0.77;;;11.90;82.90;;;;;;5033744;28;20446;-88
2023/04/16 00:30:53;;;;;;;2.50;1.00;;;11.90;83.00;;;;;;4984458;28;20116;-87
2023/04/16 00:33:19;;;;;;;1.70;0.80;;;11.90;83.10;;;;;;5018261;28;20034;-85
2023/04/16 00:35:45;;;;;;;1.42;0.80;;;11.90;83.10;;;;;;5015909;28;20048;-86
2023/04/16 00:38:12;;;;;;;1.95;0.70;;;11.90;83.20;;;;;;5022048;28;20130;-87
2023/04/16 00:40:37;;;;;;;1.13;0.80;;;11.90;83.30;;;;;;5014520;28;20029;-88
2023/04/16 00:43:03;;;;;;;2.28;1.00;;;11.90;83.40;;;;;;5000750;28;20082;-87
2023/04/16 00:45:29;;;;;;;2.00;0.98;;;11.90;83.40;;;;;;5028248;28;20044;-89
2023/04/16 00:47:55;;;;;;;2.37;0.93;;;11.90;83.50;;;;;;5001987;28;20029;-88
2023/04/16 00:50:22;;;;;;;1.52;0.98;;;11.90;83.50;;;;;;5013245;28;20041;-85
2023/04/16 00:52:48;;;;;;;2.00;1.13;;;11.90;83.60;;;;;;5017612;28;20228;-87
2023/04/16 00:55:18;;;;;;;3.05;1.20;;;11.90;83.60;;;;;;5014450;28;20021;-87
2023/04/16 00:57:44;;;;;;;1.90;1.30;;;11.90;83.60;;;;;;5004006;28;20128;-86
2023/04/16 01:00:11;;;;;;;1.80;1.10;;;11.90;83.70;;;;;;5000822;28;20029;-87
2023/04/16 01:02:38;;;;;;;2.33;1.15;;;11.90;83.70;;;;;;4999032;28;20036;-87
2023/04/16 01:05:04;;;;;;;1.25;1.05;;;11.90;83.90;;;;;;4997508;28;20033;-87
2023/04/16 01:07:30;;;;;;;2.20;1.10;;;11.90;83.90;;;;;;5029158;28;20224;-89
2023/04/16 01:09:55;;;;;;;2.80;1.30;;;11.90;84.00;;;;;;5022223;28;20060;-86
2023/04/16 01:12:21;;;;;;;1.80;1.10;;;11.90;84.10;;;;;;5015224;28;20075;-89
2023/04/16 01:14:48;;;;;;;2.55;1.27;;;11.90;84.20;;;;;;5001244;28;20063;-88
2023/04/16 01:17:13;;;;;;;2.25;1.10;;;11.90;84.20;;;;;;5003399;28;20387;-85
2023/04/16 01:19:39;;;;;;;2.27;1.30;;;11.90;84.30;;;;;;5027497;28;20025;-88
2023/04/16 01:22:04;;;;;;;2.17;1.00;;;11.80;84.30;;;;;;5021332;28;20106;-85
2023/04/16 01:24:31;;;;;;;1.52;1.08;;;11.90;84.40;;;;;;5010641;28;20118;-87
2023/04/16 01:26:58;;;;;;;1.85;1.20;;;11.90;84.50;;;;;;5001347;28;20029;-88
2023/04/16 01:29:24;;;;;;;1.50;0.93;;;11.90;84.50;;;;;;4999520;28;20442;-87
2023/04/16 01:31:49;;;;;;;2.10;1.02;;;11.80;84.60;;;;;;5003556;28;20017;-86
2023/04/16 01:34:15;;;;;;;1.23;0.90;;;11.80;84.60;;;;;;4977143;28;20026;-88
2023/04/16 01:36:41;;;;;;;2.33;0.90;;;11.80;84.70;;;;;;5021857;28;20186;-87
2023/04/16 01:39:10;;;;;;;1.50;0.97;;;11.90;85.60;;;;;;5012188;28;20284;-89
2023/04/16 01:41:36;;;;;;;1.45;0.90;;;11.90;84.90;;;;;;5027962;28;20312;-88
2023/04/16 01:44:02;;;;;;;2.20;1.07;;;11.90;84.90;;;;;;5026479;28;20025;-88
2023/04/16 01:46:29;;;;;;;1.90;1.10;;;11.90;85.00;;;;;;5018422;28;20041;-85
2023/04/16 01:48:56;;;;;;;1.50;1.00;;;11.80;84.90;;;;;;5006202;28;20466;-88
2023/04/16 01:51:22;;;;;;;1.80;1.05;;;11.80;85.00;;;;;;5001660;28;20292;-87
2023/04/16 01:53:49;;;;;;;1.90;1.07;;;11.80;85.10;;;;;;5016711;28;20028;-89
2023/04/16 01:56:15;;;;;;;4.00;1.42;;;11.80;85.20;;;;;;5035524;28;20039;-88
2023/04/16 01:58:41;;;;;;;1.50;1.20;;;11.80;85.20;;;;;;5028667;28;20655;-86
2023/04/16 02:01:08;;;;;;;2.03;1.10;;;11.80;85.40;;;;;;5033558;28;20109;-89
2023/04/16 02:03:34;;;;;;;1.80;1.05;;;11.80;85.40;;;;;;5011207;28;20521;-86
2023/04/16 02:06:00;;;;;;;1.92;1.15;;;11.80;85.50;;;;;;4986641;28;20517;-86
2023/04/16 02:08:26;;;;;;;1.20;1.05;;;11.80;85.60;;;;;;5011914;28;20028;-87
2023/04/16 02:10:53;;;;;;;1.40;0.95;;;11.80;85.70;;;;;;4999902;28;20402;-87
2023/04/16 02:13:18;;;;;;;1.77;0.90;;;11.80;85.70;;;;;;5014136;28;20526;-89
2023/04/16 02:15:49;;;;;;;1.63;1.00;;;11.90;85.90;;;;;;4998087;28;20036;-86
2023/04/16 02:18:15;;;;;;;1.10;0.90;;;11.90;85.90;;;;;;5005241;28;20547;-88
2023/04/16 02:20:43;;;;;;;1.95;1.02;;;11.90;86.10;;;;;;4999832;28;21232;-87
2023/04/16 02:23:10;;;;;;;2.33;0.93;;;11.90;86.00;;;;;;5004739;28;20543;-88
2023/04/16 02:25:44;;;;;;;1.80;1.00;;;11.80;86.00;;;;;;4988202;28;20395;-87
2023/04/16 02:28:13;;;;;;;1.17;0.95;;;11.80;86.30;;;;;;5035343;28;20033;-88
2023/04/16 02:30:39;;;;;;;1.17;0.90;;;11.80;86.30;;;;;;5012849;28;20971;-88
2023/04/16 02:33:07;;;;;;;1.60;1.10;;;11.80;86.50;;;;;;5005990;28;20639;-88
2023/04/16 02:35:34;;;;;;;1.10;1.00;;;11.80;86.60;;;;;;5020425;28;20607;-89
2023/04/16 02:38:00;;;;;;;1.83;1.08;;;11.70;86.80;;;;;;5005462;28;20095;-89
2023/04/16 02:40:26;;;;;;;1.90;1.00;;;11.70;86.90;;;;;;4994616;28;20647;-89
2023/04/16 02:42:53;;;;;;;1.10;0.98;;;11.70;87.00;;;;;;5034227;28;20371;-90
2023/04/16 02:45:19;;;;;;;2.47;1.15;;;11.60;87.10;;;;;;5010635;28;20029;-87
2023/04/16 02:47:46;;;;;;;1.33;1.00;;;11.60;87.20;;;;;;5038053;28;20567;-90
2023/04/16 02:50:11;;;;;;;1.27;1.02;;;11.60;87.40;;;;;;5013824;28;20104;-87
2023/04/16 02:52:37;;;;;;;2.05;1.20;;;11.50;87.50;;;;;;4984190;28;20057;-88
2023/04/16 02:55:03;;;;;;;1.87;1.17;;;11.50;88.40;;;;;;5028510;28;20036;-87
2023/04/16 02:57:29;;;;;;;2.30;1.27;;;11.50;87.70;;;;;;5018418;28;20110;-87
2023/04/16 02:59:55;;;;;;;2.63;1.23;;;11.50;87.90;;;;;;5020298;28;20051;-86
2023/04/16 03:02:20;;;;;;;1.30;1.08;;;11.40;88.00;;;;;;4997987;28;20029;-87
2023/04/16 03:04:46;;;;;;;3.00;1.40;;;11.50;88.20;;;;;;5021860;28;20239;-89
2023/04/16 03:07:12;;;;;;;2.23;1.20;;;11.40;88.40;;;;;;5025980;28;20108;-88
2023/04/16 03:09:39;;;;;;;1.83;1.17;;;11.40;88.60;;;;;;5001360;28;20278;-88
2023/04/16 03:12:05;;;;;;;1.80;1.17;;;11.40;88.70;;;;;;5011068;28;20456;-86
2023/04/16 03:14:31;;;;;;;2.33;1.40;;;11.40;88.90;;;;;;5038930;28;20555;-89
2023/04/16 03:16:57;;;;;;;3.53;1.52;;;11.40;89.00;;;;;;4997496;28;20021;-87
2023/04/16 03:19:23;;;;;;;2.33;1.42;;;11.40;89.20;;;;;;5021164;28;20382;-86
2023/04/16 03:21:49;;;;;;;1.95;1.35;;;11.40;89.20;;;;;;5035848;28;20048;-87
2023/04/16 03:24:15;;;;;;;2.47;1.30;;;11.40;89.30;;;;;;4988750;28;20017;-86
2023/04/16 03:26:40;;;;;;;2.60;1.65;;;11.40;89.40;;;;;;5031299;28;20044;-89
2023/04/16 03:29:06;;;;;;;2.10;1.40;;;11.40;89.50;;;;;;5026975;28;20398;-87
2023/04/16 03:31:32;;;;;;;2.63;1.38;;;11.40;89.70;;;;;;5017589;28;20032;-90
2023/04/16 03:33:58;;;;;;;2.80;1.40;;;11.30;89.70;;;;;;5022973;28;20573;-88
2023/04/16 03:36:25;;;;;;;1.83;1.33;;;11.40;90.00;;;;;;5021563;28;20482;-87
2023/04/16 03:38:52;;;;;;;2.80;1.50;;;11.30;90.00;;;;;;5021771;28;20032;-87
2023/04/16 03:41:17;;;;;;;2.13;1.50;;;11.30;90.10;;;;;;5023698;28;20486;-86
2023/04/16 03:43:43;;;;;;;1.95;1.30;;;11.30;90.20;;;;;;5033889;28;20515;-89
2023/04/16 03:46:09;;;;;;;2.65;1.45;;;11.30;90.50;;;;;;5025691;28;20044;-86
2023/04/16 03:48:35;;;;;;;1.93;1.47;;;11.30;90.30;;;;;;5012347;28;20494;-89
2023/04/16 03:51:01;;;;;;;2.50;1.50;;;11.30;90.30;;;;;;5027477;28;20038;-89
2023/04/16 03:53:27;;;;;;;3.00;1.50;;;11.30;90.30;;;;;;5002483;28;20068;-89
2023/04/16 03:55:53;;;;;;;3.45;1.30;;;11.30;90.40;;;;;;5022318;28;20550;-91
2023/04/16 03:58:19;;;;;;;3.27;1.40;;;11.30;90.40;;;;;;4999409;28;20667;-88
2023/04/16 04:00:45;;;;;;;2.40;1.27;;;11.20;90.40;;;;;;5019104;28;20638;-88
2023/04/16 04:03:11;;;;;;;1.90;1.25;;;11.30;90.50;;;;;;5035001;28;20148;-90
2023/04/16 04:05:40;;;;;;;5.73;1.30;;;11.30;90.60;;;;;;5034120;28;20712;-87
2023/04/16 04:08:06;;;;;;;2.25;1.35;;;11.30;90.60;;;;;;5008510;28;20025;-88
2023/04/16 04:10:33;;;;;;;1.75;1.25;;;11.20;90.60;;;;;;5001807;28;20285;-89
2023/04/16 04:12:59;;;;;;;2.85;1.27;;;11.30;90.70;;;;;;5029582;28;20025;-89
2023/04/16 04:15:25;;;;;;;2.97;1.23;;;11.30;90.80;;;;;;5009365;28;20387;-87
2023/04/16 04:17:51;;;;;;;1.73;1.17;;;11.20;90.80;;;;;;5022038;28;20095;-90
2023/04/16 04:20:16;;;;;;;2.13;1.47;;;11.20;90.80;;;;;;5001871;28;20505;-89
2023/04/16 04:22:42;;;;;;;3.35;1.65;;;11.20;90.90;;;;;;5020421;28;20598;-88
2023/04/16 04:25:09;;;;;;;3.57;1.50;;;11.20;90.90;;;;;;5028115;28;20147;-88
2023/04/16 04:27:35;;;;;;;2.03;1.27;;;11.20;91.00;;;;;;4983923;28;20270;-89
2023/04/16 04:30:03;;;;;;;2.30;1.27;;;11.20;91.00;;;;;;5003444;28;20068;-88
2023/04/16 04:32:28;;;;;;;1.88;1.40;;;11.20;91.10;;;;;;5014282;28;20041;-87
2023/04/16 04:34:54;;;;;;;2.30;1.50;;;11.20;91.10;;;;;;5016418;28;20032;-89
2023/04/16 04:37:20;;;;;;;1.75;1.27;;;11.20;91.10;;;;;;5009646;28;20036;-86
2023/04/16 04:39:45;;;;;;;2.50;1.40;;;11.20;91.20;;;;;;5013116;28;20222;-87
2023/04/16 04:42:11;;;;;;;2.05;1.45;;;11.20;91.20;;;;;;5020340;28;20029;-88
2023/04/16 04:44:37;;;;;;;2.13;1.50;;;11.10;91.30;;;;;;4972242;28;20229;-88
2023/04/16 04:47:02;;;;;;;2.13;1.30;;;11.20;91.30;;;;;;5021801;28;20448;-90
2023/04/16 04:49:29;;;;;;;2.47;1.43;;;11.20;91.40;;;;;;5002406;28;20115;-88
2023/04/16 04:51:55;;;;;;;2.42;1.50;;;11.20;91.40;;;;;;5005362;28;20025;-89
2023/04/16 04:54:21;;;;;;;2.90;1.53;;;11.10;91.40;;;;;;5019510;28;20079;-87
2023/04/16 04:56:47;;;;;;;1.70;1.40;;;11.10;91.50;;;;;;5020977;28;20242;-89
2023/04/16 04:59:12;;;;;;;2.97;1.40;;;11.10;91.50;;;;;;5003840;28;20020;-88
2023/04/16 05:01:38;;;;;;;2.22;1.40;;;11.10;91.50;;;;;;5003230;28;20032;-88
2023/04/16 05:04:04;;;;;;;2.10;1.45;;;11.10;91.50;;;;;;5006887;28;20094;-90
2023/04/16 05:06:30;;;;;;;2.73;1.40;;;11.10;91.60;;;;;;5014002;28;20025;-89
2023/04/16 05:08:56;;;;;;;2.30;1.48;;;11.10;91.60;;;;;;5020910;28;20025;-88
2023/04/16 05:11:21;;;;;;;2.73;1.27;;;11.10;91.70;;;;;;5022224;28;20178;-88
2023/04/16 05:13:47;;;;;;;3.28;1.35;;;11.10;91.70;;;;;;4992570;28;20050;-86
2023/04/16 05:16:13;;;;;;;2.03;1.10;;;11.10;91.70;;;;;;5012250;28;20418;-89
2023/04/16 05:18:38;;;;;;;2.80;1.70;;;11.10;91.70;;;;;;5011619;28;20040;-87
2023/04/16 05:21:04;;;;;;;3.63;1.80;;;11.10;91.80;;;;;;5008543;28;20208;-89
2023/04/16 05:23:30;;;;;;;1.80;1.38;;;11.10;91.80;;;;;;5029502;28;20047;-88
2023/04/16 05:25:56;;;;;;;2.45;1.42;;;11.10;91.90;;;;;;5001527;28;20079;-87
2023/04/16 05:28:21;;;;;;;2.10;1.50;;;11.10;91.90;;;;;;5020702;28;20060;-89
2023/04/16 05:30:47;;;;;;;3.58;1.98;;;11.10;91.90;;;;;;5003798;28;20040;-87
2023/04/16 05:33:13;;;;;;;3.70;1.73;;;11.10;92.00;;;;;;5038243;28;20108;-89
2023/04/16 05:35:38;;;;;;;2.13;1.50;;;11.10;92.00;;;;;;5036676;28;20021;-88
2023/04/16 05:38:04;;;;;;;4.93;1.40;;;11.10;92.00;;;;;;5001364;28;22935;-87
2023/04/16 05:40:31;;;;;;;2.33;1.50;;;11.10;92.10;;;;;;5023120;28;20666;-87
2023/04/16 05:42:57;;;;;;;2.00;1.40;;;11.10;92.10;;;;;;5001338;28;20059;-87
2023/04/16 05:45:22;;;;;;;3.15;1.30;;;11.10;92.10;;;;;;4986442;28;20063;-88
2023/04/16 05:47:48;;;;;;;2.10;1.30;;;11.10;92.10;;;;;;5036086;28;20452;-87
2023/04/16 05:50:14;;;;;;;2.20;1.50;;;11.10;92.20;;;;;;5034677;28;20212;-90
2023/04/16 05:52:40;;;;;;;3.05;1.55;;;11.10;92.20;;;;;;5018534;28;20116;-88
2023/04/16 05:55:06;;;;;;;2.37;1.53;;;11.10;92.30;;;;;;5004673;28;20036;-87
2023/04/16 05:57:32;;;;;;;3.42;1.65;;;11.10;92.30;;;;;;5036432;28;20040;-88
2023/04/16 05:59:58;;;;;;;2.88;2.00;;;11.10;92.70;;;;;;4982146;28;20025;-89
2023/04/16 06:02:24;;;;;;;4.53;2.53;;;11.10;92.40;;;;;;5034812;28;20032;-88
2023/04/16 06:04:49;;;;;;;4.20;2.60;;;11.10;92.40;;;;;;5016643;28;20457;-88
2023/04/16 06:07:15;;;;;;;5.03;2.70;;;11.10;92.50;;;;;;4999857;28;20287;-89
2023/04/16 06:09:41;;;;;;;7.63;4.28;;;11.10;92.50;;;;;;5001051;28;20028;-87
2023/04/16 06:12:07;;;;;;;7.37;3.83;;;11.10;92.60;;;;;;4999989;28;20339;-89
2023/04/16 06:14:32;;;;;;;5.40;3.25;;;11.10;92.60;;;;;;5004689;28;20029;-88
2023/04/16 06:16:58;;;;;;;5.90;3.17;;;11.10;92.60;;;;;;4971863;28;20174;-87
2023/04/16 06:19:24;;;;;;;4.45;2.90;;;11.10;92.70;;;;;;4993390;28;20021;-90
2023/04/16 06:21:50;;;;;;;3.17;1.87;;;11.10;92.70;;;;;;5016487;28;20040;-87
2023/04/16 06:24:17;;;;;;;2.85;1.77;;;11.10;92.80;;;;;;4989930;28;20029;-89
2023/04/16 06:26:43;;;;;;;2.17;1.45;;;11.10;92.80;;;;;;5019049;28;20589;-88
2023/04/16 06:29:10;;;;;;;2.08;1.30;;;11.10;92.90;;;;;;4997780;28;20045;-87
2023/04/16 06:31:36;;;;;;;2.75;1.33;;;11.10;92.90;;;;;;4982454;28;20041;-87
2023/04/16 06:34:02;;;;;;;2.10;1.30;;;11.10;93.00;;;;;;5009254;28;20592;-88
2023/04/16 06:36:28;;;;;;;1.77;1.20;;;11.10;93.00;;;;;;5022468;28;20273;-89
2023/04/16 06:38:53;;;;;;;2.30;1.40;;;11.10;93.00;;;;;;5016766;28;20389;-88
2023/04/16 06:41:21;;;;;;;3.03;1.45;;;11.10;93.00;;;;;;4984703;28;20035;-87
2023/04/16 06:43:47;;;;;;;2.75;1.42;;;11.20;93.10;;;;;;5015117;28;20048;-88
2023/04/16 06:46:12;;;;;;;2.77;1.40;;;11.20;93.10;;;;;;5018058;28;20624;-88
2023/04/16 06:48:38;;;;;;;2.03;1.33;;;11.20;93.20;;;;;;4995566;28;20270;-89
2023/04/16 06:51:04;;;;;;;2.57;1.60;;;11.20;93.20;;;;;;4997862;28;20421;-87
2023/04/16 06:53:30;;;;;;;2.40;1.48;;;11.20;93.30;;;;;;5002638;28;20390;-87
2023/04/16 06:55:56;;;;;;;4.15;1.88;;;11.10;93.30;;;;;;5021949;28;20437;-87
2023/04/16 06:58:22;;;;;;;3.10;1.90;;;11.20;93.40;;;;;;5023208;28;20029;-87
2023/04/16 07:00:47;;;;;;;2.65;1.50;;;11.20;93.40;;;;;;5020339;28;20132;-87
2023/04/16 07:03:13;;;;;;;7.50;1.48;;;11.20;93.40;;;;;;4980361;28;20683;-88
2023/04/16 07:05:39;;;;;;;3.00;1.40;;;11.20;93.50;;;;;;5006701;28;20025;-87
2023/04/16 07:08:05;;;;;;;1.75;1.30;;;11.20;93.90;;;;;;5002767;28;20101;-87
2023/04/16 07:10:31;;;;;;;2.83;1.57;;;11.20;93.60;;;;;;5032855;28;20444;-87
2023/04/16 07:12:57;;;;;;;2.50;1.50;;;11.20;93.60;;;;;;5021196;28;20787;-87
2023/04/16 07:15:22;;;;;;;2.63;1.60;;;11.20;93.70;;;;;;5000988;28;20231;-88
2023/04/16 07:17:48;;;;;;;3.13;1.87;;;11.30;93.70;;;;;;5013794;28;20517;-89
2023/04/16 07:20:14;;;;;;;2.50;1.77;;;11.30;93.80;;;;;;4997844;28;20025;-89
2023/04/16 07:22:40;;;;;;;3.17;2.10;;;11.30;93.80;;;;;;5038043;28;20031;-90
2023/04/16 07:25:06;;;;;;;2.72;1.80;;;11.30;93.80;;;;;;4999947;28;20021;-86
2023/04/16 07:27:31;;;;;;;2.53;1.70;;;11.30;93.90;;;;;;5010400;28;20029;-89
2023/04/16 07:29:57;;;;;;;3.15;2.20;;;11.40;94.30;;;;;;5019735;28;20063;-87
2023/04/16 07:32:23;;;;;;;3.43;2.13;;;11.40;94.00;;;;;;4991685;28;20215;-89
2023/04/16 07:34:49;;;;;;;4.00;2.17;;;11.40;94.00;;;;;;4985969;28;20082;-87
2023/04/16 07:37:14;;;;;;;5.40;2.57;;;11.40;94.30;;;;;;4994759;28;20221;-87
2023/04/16 07:39:40;;;;;;;4.97;2.67;;;11.40;94.00;;;;;;5021859;28;20021;-87
2023/04/16 07:42:06;;;;;;;5.85;2.90;;;11.40;94.00;;;;;;5003459;28;20032;-86
2023/04/16 07:44:32;;;;;;;6.67;2.87;;;11.50;94.10;;;;;;5010385;28;20581;-85
2023/04/16 07:46:57;;;;;;;8.18;3.22;;;11.50;94.10;;;;;;5018236;28;20079;-88
2023/04/16 07:49:23;;;;;;;7.17;3.43;;;11.50;94.10;;;;;;5016557;28;20097;-87
2023/04/16 07:51:49;;;;;;;6.80;2.95;;;11.50;94.10;;;;;;5018588;28;20029;-88
2023/04/16 07:54:15;;;;;;;7.30;3.33;;;11.50;94.20;;;;;;5002552;28;20533;-87
2023/04/16 07:56:40;;;;;;;7.43;3.60;;;11.50;94.20;;;;;;5023682;28;20113;-88
2023/04/16 07:59:06;;;;;;;7.47;3.20;;;11.50;94.20;;;;;;5007457;28;20025;-86
2023/04/16 08:01:32;;;;;;;7.00;3.47;;;11.50;94.30;;;;;;5017393;28;20031;-89
2023/04/16 08:03:57;;;;;;;5.67;3.43;;;11.50;94.30;;;;;;5036043;28;20538;-86
2023/04/16 08:06:25;;;;;;;4.65;2.50;;;11.50;94.30;;;;;;5012281;28;25224;-88
2023/04/16 08:08:51;;;;;;;3.88;2.40;;;11.50;94.40;;;;;;5027028;28;20024;-86
2023/04/16 08:11:17;;;;;;;4.43;2.50;;;11.50;94.40;;;;;;5016737;28;20206;-86
2023/04/16 08:13:42;;;;;;;3.70;2.30;;;11.60;94.40;;;;;;5040466;28;20039;-88
2023/04/16 08:16:08;;;;;;;3.97;2.45;;;11.60;94.50;;;;;;4989486;28;20033;-88
2023/04/16 08:18:34;;;;;;;3.77;2.20;;;11.60;94.50;;;;;;5037201;28;20048;-87
2023/04/16 08:21:00;;;;;;;4.40;2.40;;;11.60;94.50;;;;;;5034687;28;20356;-88
2023/04/16 08:23:26;;;;;;;3.80;2.38;;;11.60;94.50;;;;;;4994452;28;20332;-87
2023/04/16 08:25:51;;;;;;;4.63;2.30;;;11.60;94.60;;;;;;5041706;28;20126;-86
2023/04/16 08:28:17;;;;;;;4.77;2.47;;;11.60;94.60;;;;;;5017057;28;20043;-87
2023/04/16 08:30:44;;;;;;;4.25;2.53;;;11.60;94.60;;;;;;5018321;28;20033;-88
2023/04/16 08:33:10;;;;;;;4.55;2.47;;;11.60;94.70;;;;;;4997125;28;20128;-86
2023/04/16 08:35:36;;;;;;;3.93;2.57;;;11.60;94.70;;;;;;5022407;28;20080;-86
2023/04/16 08:38:03;;;;;;;4.57;2.55;;;11.60;94.80;;;;;;4969145;28;20396;-88
2023/04/16 08:40:31;;;;;;;4.90;2.60;;;11.70;94.80;;;;;;4998297;28;20087;-87
2023/04/16 08:42:59;;;;;;;6.13;2.60;;;11.70;94.80;;;;;;4997847;28;20056;-84
2023/04/16 08:45:26;;;;;;;5.00;2.58;;;11.70;94.90;;;;;;5012902;28;20032;-88
2023/04/16 08:47:52;;;;;;;5.22;2.47;;;11.70;94.90;;;;;;4986449;28;20029;-86
2023/04/16 08:50:25;;;;;;;6.18;2.50;;;11.70;94.90;;;;;;5030791;28;20300;-87
2023/04/16 08:53:05;;;;;;;4.43;2.30;;;11.70;95.00;;;;;;5019982;28;20041;-84
2023/04/16 08:55:46;;;;;;;3.65;2.47;;;11.70;95.00;;;;;;5014737;28;20033;-86
2023/04/16 08:58:14;;;;;;;5.50;2.60;;;11.70;95.10;;;;;;5016177;28;20056;-88
2023/04/16 09:00:42;;;;;;;4.53;2.47;;;11.70;95.00;;;;;;5021392;28;20066;-85
2023/04/16 09:03:09;;;;;;;5.80;2.67;;;11.70;95.10;;;;;;5013906;28;20216;-85
2023/04/16 09:05:35;;;;;;;5.73;2.87;;;11.70;95.10;;;;;;4999035;28;20099;-87
2023/04/16 09:08:01;;;;;;;5.43;2.47;;;11.80;95.10;;;;;;5031239;28;20477;-87
2023/04/16 09:10:27;;;;;;;5.03;3.13;;;11.80;95.20;;;;;;5008984;28;20033;-87
2023/04/16 09:12:56;;;;;;;6.72;3.55;;;11.80;95.20;;;;;;4984842;28;20055;-85
2023/04/16 09:15:23;;;;;;;6.63;3.67;;;11.80;95.20;;;;;;5030123;28;20056;-87
2023/04/16 09:17:48;;;;;;;6.90;3.75;;;11.80;95.20;;;;;;5016570;28;20031;-85
2023/04/16 09:20:14;;;;;;;5.10;3.40;;;11.80;95.30;;;;;;5001959;28;20025;-86
2023/04/16 09:22:41;;;;;;;5.57;3.20;;;11.80;95.30;;;;;;5016397;28;20024;-86
2023/04/16 09:25:09;;;;;;;5.55;3.00;;;11.90;95.40;;;;;;4999664;28;20043;-90
2023/04/16 09:27:35;;;;;;;4.70;2.97;;;11.90;95.40;;;;;;5038854;28;20025;-90
2023/04/16 09:30:20;;;;;;;5.57;2.85;;;11.90;95.50;;;;;;4998652;28;20053;-86
2023/04/16 09:32:46;;;;;;;5.90;2.70;;;11.90;95.50;;;;;;5032904;28;20746;-85
2023/04/16 09:35:13;;;;;;;6.43;2.88;;;11.90;95.50;;;;;;5000210;28;20266;-85
2023/04/16 09:37:39;;;;;;;4.97;2.75;;;11.90;95.50;;;;;;5035464;28;20040;-86
2023/04/16 09:40:05;;;;;;;5.50;2.70;;;11.90;95.50;;;;;;4996770;28;20255;-87
2023/04/16 09:42:33;;;;;;;5.35;2.78;;;12.00;95.50;;;;;;5002729;28;20040;-86
2023/04/16 09:44:59;;;;;;;7.00;3.00;;;11.90;95.50;;;;;;5006589;28;20359;-89
2023/04/16 09:47:38;;;;;;;4.32;2.70;;;12.00;95.60;;;;;;5027592;28;20016;-85
2023/04/16 09:50:04;;;;;;;5.90;2.77;;;12.00;95.60;;;;;;5006554;28;20121;-87
2023/04/16 09:52:30;;;;;;;4.88;2.47;;;12.00;95.60;;;;;;5017289;28;20040;-85
2023/04/16 09:54:56;;;;;;;5.00;2.90;;;12.00;95.60;;;;;;4996417;28;20303;-87
2023/04/16 09:57:23;;;;;;;6.63;3.03;;;12.00;95.70;;;;;;5001282;28;20083;-86
2023/04/16 10:00:00;;;;;;;4.60;2.83;;;12.00;95.70;;;;;;5035767;28;20231;-86
2023/04/16 10:02:27;;;;;;;5.28;2.67;;;12.00;95.70;;;;;;5033312;28;20045;-86
2023/04/16 10:04:54;;;;;;;5.60;3.20;;;12.10;95.70;;;;;;5004249;28;20243;-85
2023/04/16 10:07:20;;;;;;;6.53;2.90;;;12.10;95.70;;;;;;5018950;28;20032;-86
2023/04/16 10:09:48;;;;;;;5.00;2.95;;;12.10;95.70;;;;;;5008419;28;20052;-86
2023/04/16 10:12:15;;;;;;;5.88;2.70;;;12.10;95.80;;;;;;4996615;28;20025;-86
2023/04/16 10:14:41;;;;;;;4.53;2.80;;;12.10;95.80;;;;;;5031454;28;20032;-86
2023/04/16 10:17:08;;;;;;;5.43;2.55;;;12.10;95.90;;;;;;5019619;28;20027;-86
2023/04/16 10:19:34;;;;;;;4.53;2.67;;;12.10;95.90;;;;;;5013188;28;20021;-86
2023/04/16 10:22:01;;;;;;;4.35;2.85;;;12.20;95.90;;;;;;5020740;28;20509;-85
2023/04/16 10:24:31;;;;;;;5.38;2.85;;;12.20;95.90;;;;;;4998156;28;20474;-86
2023/04/16 10:26:58;;;;;;;4.68;2.72;;;12.20;95.90;;;;;;4997830;28;20773;-85
2023/04/16 10:29:28;;;;;;;4.75;2.72;;;12.20;95.90;;;;;;5014122;28;20048;-85
2023/04/16 10:31:55;;;;;;;5.03;2.80;;;12.20;96.00;;;;;;5003890;28;20221;-86
2023/04/16 10:34:22;;;;;;;5.18;2.75;;;12.20;96.00;;;;;;5029548;28;20452;-86
2023/04/16 10:36:52;;;;;;;5.15;2.92;;;12.20;96.10;;;;;;4999521;28;21606;-86
2023/04/16 10:39:20;;;;;;;4.07;2.53;;;12.30;96.50;;;;;;5017943;28;20378;-85
2023/04/16 10:41:45;;;;;;;5.00;2.95;;;12.30;96.20;;;;;;4995526;28;20107;-87
2023/04/16 10:44:11;;;;;;;6.40;3.03;;;12.30;96.20;;;;;;5024506;28;20037;-86
2023/04/16 10:46:40;;;;;;;5.95;3.22;;;12.30;96.20;;;;;;5007151;28;20465;-86
2023/04/16 10:49:26;;;;;;;9.75;4.45;;;12.30;96.30;;;;;;5009125;28;20056;-86
2023/04/16 10:52:01;;;;;;;10.27;5.15;;;12.30;96.40;;;;;;5005637;28;20032;-86
2023/04/16 10:54:30;;;;;;;8.23;4.53;;;12.40;96.40;;;;;;4991130;28;20017;-85
2023/04/16 10:57:01;;;;;;;7.43;4.00;;;12.40;96.40;;;;;;4990262;28;20040;-87
2023/04/16 10:59:31;;;;;;;6.32;3.90;;;12.40;96.40;;;;;;4988492;28;20021;-87
2023/04/16 11:02:00;;;;;;;7.35;4.18;;;12.40;96.50;;;;;;4992685;28;20237;-86
2023/04/16 11:04:34;;;;;;;7.13;3.55;;;12.50;96.50;;;;;;4990405;28;20438;-86
2023/04/16 11:07:12;;;;;;;5.95;3.53;;;12.50;96.50;;;;;;5000714;28;20033;-87
2023/04/16 11:09:56;;;;;;;7.37;3.23;;;12.50;96.50;;;;;;5015904;28;20037;-86
2023/04/16 11:12:28;;;;;;;5.65;3.33;;;12.50;96.50;;;;;;5035869;28;20035;-86
2023/04/16 11:15:01;;;;;;;5.25;3.20;;;12.50;96.50;;;;;;4999979;28;20044;-89
2023/04/16 11:17:30;;;;;;;5.28;3.17;;;12.50;96.40;;;;;;5017105;28;20040;-86
2023/04/16 11:19:56;;;;;;;5.00;3.03;;;12.60;96.50;;;;;;5004336;28;20208;-87
2023/04/16 11:22:22;;;;;;;5.23;3.13;;;12.50;96.50;;;;;;5029222;28;20020;-87
2023/04/16 11:24:56;;;;;;;5.65;3.20;;;12.50;96.50;;;;;;5000832;28;20209;-86
2023/04/16 11:27:23;;;;;;;5.20;3.08;;;12.60;96.50;;;;;;5014606;28;20108;-87
2023/04/16 11:30:04;;;;;;;5.63;3.30;;;12.60;96.60;;;;;;4997598;28;20342;-89
2023/04/16 11:32:37;;;;;;;5.47;3.05;;;12.60;96.70;;;;;;5012546;28;20051;-88
2023/04/16 11:35:16;;;;;;;4.90;3.28;;;12.60;96.70;;;;;;5022162;28;20090;-87
2023/04/16 11:37:44;;;;;;;4.90;3.42;;;12.60;96.60;;;;;;5000343;28;20703;-87
2023/04/16 11:40:10;;;;;;;6.07;3.72;;;12.60;96.70;;;;;;5021091;28;20064;-88
2023/04/16 11:42:40;;;;;;;5.17;3.33;;;12.70;96.80;;;;;;4996181;28;20431;-86
2023/04/16 11:45:08;;;;;;;5.85;3.42;;;12.70;96.80;;;;;;4995383;28;20025;-86
2023/04/16 11:47:53;;;;;;;5.70;3.58;;;12.70;96.80;;;;;;5018045;28;20194;-86
2023/04/16 11:50:25;;;;;;;6.03;3.72;;;12.70;96.90;;;;;;5021397;28;20100;-86
2023/04/16 11:52:52;;;;;;;8.10;4.00;;;12.80;97.00;;;;;;4998875;28;20182;-88
2023/04/16 11:55:19;;;;;;;6.00;3.77;;;12.80;97.10;;;;;;5006679;28;20044;-85
2023/04/16 11:57:45;;;;;;;5.85;3.92;;;12.80;97.10;;;;;;5016236;28;20059;-87
2023/04/16 12:00:12;;;;;;;5.38;3.60;;;12.90;97.10;;;;;;5036769;28;20022;-90
2023/04/16 12:02:39;;;;;;;5.05;3.50;;;12.90;97.10;;;;;;5010579;28;20470;-87
2023/04/16 12:05:29;;;;;;;4.87;3.53;;;12.90;97.10;;;;;;5036911;28;20028;-87
2023/04/16 12:07:55;;;;;;;5.15;3.28;;;13.00;97.10;;;;;;5026110;28;20977;-88
2023/04/16 12:10:22;;;;;;;6.40;3.75;;;13.00;97.10;;;;;;5025973;28;20017;-87
2023/04/16 12:12:48;;;;;;;5.63;3.40;;;13.00;97.00;;;;;;4996122;28;20033;-87
2023/04/16 12:15:13;;;;;;;6.63;3.60;;;13.10;97.10;;;;;;5004097;28;20093;-89
2023/04/16 12:17:39;;;;;;;5.43;3.58;;;13.10;97.10;;;;;;4999163;28;20064;-88
2023/04/16 12:20:10;;;;;;;5.67;3.83;;;13.10;97.10;;;;;;5023213;28;20459;-87
2023/04/16 12:22:43;;;;;;;8.07;3.95;;;13.10;97.10;;;;;;5030589;28;20025;-86
2023/04/16 12:25:14;;;;;;;7.10;4.35;;;13.20;97.20;;;;;;4993900;28;20029;-89
2023/04/16 12:27:42;;;;;;;6.47;4.07;;;13.20;97.10;;;;;;5032873;28;20028;-88
2023/04/16 12:30:08;;;;;;;7.07;3.83;;;13.20;97.20;;;;;;5018065;28;20048;-87
2023/04/16 12:32:34;;;;;;;6.88;4.30;;;13.20;97.20;;;;;;4988870;28;20281;-86
2023/04/16 12:35:00;;;;;;;6.10;3.83;;;13.20;97.20;;;;;;5037300;28;20044;-89
2023/04/16 12:37:26;;;;;;;7.35;4.28;;;13.30;97.10;;;;;;5011474;28;20040;-88
2023/04/16 12:39:53;;;;;;;5.33;3.63;;;13.30;97.10;;;;;;4990546;28;20025;-89
2023/04/16 12:42:19;;;;;;;5.95;3.78;;;13.30;97.10;;;;;;5009488;28;20009;-89
2023/04/16 12:44:45;;;;;;;5.75;3.83;;;13.30;97.20;;;;;;5002837;28;20091;-89
2023/04/16 12:47:11;;;;;;;6.38;3.67;;;13.30;97.30;;;;;;5022229;28;20087;-87